createdAt,value
2019-05-28T00:02:32.105Z,10.17
2019-05-28T00:06:40.909Z,10.40
2019-05-28T00:10:49.147Z,10.30
2019-05-28T00:14:57.388Z,10.57
2019-05-28T00:19:05.977Z,10.83
2019-05-28T00:23:13.746Z,9.80
2019-05-28T00:27:21.869Z,11.73
2019-05-28T00:31:30.191Z,11.13
2019-05-28T00:35:37.841Z,10.57
2019-05-28T00:39:46.527Z,11.57
2019-05-28T00:43:54.152Z,11.17
2019-05-28T00:48:02.952Z,14.20
2019-05-28T00:52:10.359Z,10.37
2019-05-28T00:56:18.142Z,8.23
2019-05-28T01:00:48.081Z,10.30
2019-05-28T01:04:57.725Z,9.63
2019-05-28T01:09:07.334Z,8.67
2019-05-28T01:13:15.846Z,9.73
2019-05-28T01:17:24.470Z,8.43
2019-05-28T01:21:32.298Z,11.43
2019-05-28T01:25:40.426Z,8.87
2019-05-28T01:29:49.685Z,10.70
2019-05-28T01:33:58.032Z,9.67
2019-05-28T01:38:08.510Z,10.63
2019-05-28T01:42:15.607Z,10.60
2019-05-28T01:46:23.866Z,9.07
2019-05-28T01:50:32.015Z,8.70
2019-05-28T01:54:40.629Z,10.40
2019-05-28T01:58:48.887Z,10.50
2019-05-28T02:02:59.106Z,11.17
2019-05-28T02:07:06.879Z,11.67
2019-05-28T02:11:15.670Z,12.47
2019-05-28T02:15:24.938Z,11.77
2019-05-28T02:19:33.065Z,14.87
2019-05-28T02:23:41.706Z,14.37
2019-05-28T02:27:50.308Z,15.33
2019-05-28T02:31:59.025Z,15.80
2019-05-28T02:36:07.439Z,16.23
2019-05-28T02:40:16.642Z,15.30
2019-05-28T02:44:25.233Z,16.33
2019-05-28T02:48:33.877Z,16.20
2019-05-28T02:52:43.898Z,19.03
2019-05-28T02:56:52.253Z,16.73
2019-05-28T03:01:01.258Z,14.70
2019-05-28T03:05:10.056Z,14.97
2019-05-28T03:09:20.854Z,14.00
2019-05-28T03:13:29.341Z,15.23
2019-05-28T03:17:39.441Z,16.17
2019-05-28T03:21:48.810Z,14.37
2019-05-28T03:25:56.663Z,13.27
2019-05-28T03:30:06.085Z,13.33
2019-05-28T03:34:15.573Z,12.20
2019-05-28T03:38:25.384Z,12.33
2019-05-28T03:42:33.643Z,11.87
2019-05-28T03:46:41.933Z,21.13
2019-05-28T03:50:50.211Z,12.40
2019-05-28T03:54:57.885Z,9.80
2019-05-28T03:59:06.078Z,12.43
2019-05-28T04:03:14.190Z,10.80
2019-05-28T04:07:21.645Z,9.43
2019-05-28T04:11:43.944Z,12.30
2019-05-28T04:15:40.282Z,9.37
2019-05-28T04:19:47.873Z,7.77
2019-05-28T04:23:56.430Z,9.27
2019-05-28T04:28:04.292Z,9.43
2019-05-28T04:32:12.928Z,8.90
2019-05-28T04:36:21.852Z,11.70
2019-05-28T04:40:29.658Z,7.60
2019-05-28T04:44:38.298Z,10.17
2019-05-28T04:48:46.412Z,8.07
2019-05-28T04:52:53.961Z,11.10
2019-05-28T04:57:02.597Z,6.90
2019-05-28T05:01:10.061Z,8.33
2019-05-28T05:05:19.428Z,7.60
2019-05-28T05:09:28.277Z,6.73
2019-05-28T05:13:35.754Z,7.20
2019-05-28T05:17:43.719Z,6.43
2019-05-28T05:21:51.698Z,6.50
2019-05-28T05:25:59.390Z,7.53
2019-05-28T05:30:09.315Z,6.30
2019-05-28T05:34:17.078Z,7.07
2019-05-28T05:38:25.797Z,8.67
2019-05-28T05:42:34.559Z,6.60
2019-05-28T05:46:41.982Z,7.80
2019-05-28T05:50:50.675Z,5.73
2019-05-28T05:54:59.407Z,5.73
2019-05-28T05:59:07.046Z,8.20
2019-05-28T06:03:15.263Z,5.70
2019-05-28T06:07:23.045Z,6.23
2019-05-28T06:11:31.670Z,7.33
2019-05-28T06:15:39.701Z,7.30
2019-05-28T06:19:47.274Z,5.60
2019-05-28T06:23:55.238Z,6.20
2019-05-28T06:28:03.188Z,5.17
2019-05-28T06:32:10.782Z,7.17
2019-05-28T06:36:19.198Z,8.93
2019-05-28T06:40:26.887Z,5.60
2019-05-28T06:44:35.358Z,6.03
2019-05-28T06:48:43.535Z,5.83
2019-05-28T06:52:51.424Z,5.70
2019-05-28T06:57:00.104Z,5.80
2019-05-28T07:01:08.897Z,6.25
2019-05-28T07:05:16.600Z,8.28
2019-05-28T07:09:26.207Z,5.67
2019-05-28T07:13:33.656Z,5.50
2019-05-28T07:17:41.730Z,5.72
2019-05-28T07:21:49.907Z,8.23
2019-05-28T07:25:57.592Z,7.75
2019-05-28T07:30:08.546Z,9.50
2019-05-28T07:34:29.693Z,7.17
2019-05-28T07:38:27.275Z,7.62
2019-05-28T07:42:35.910Z,7.58
2019-05-28T07:46:50.345Z,6.67
2019-05-28T07:50:59.090Z,6.10
2019-05-28T07:55:08.006Z,7.28
2019-05-28T07:59:16.430Z,8.75
2019-05-28T08:03:24.400Z,9.00
2019-05-28T08:07:33.016Z,12.43
2019-05-28T08:11:40.789Z,8.23
2019-05-28T08:15:49.105Z,6.97
2019-05-28T08:19:57.078Z,10.28
2019-05-28T08:24:05.525Z,6.35
2019-05-28T08:28:19.797Z,10.88
2019-05-28T08:32:23.506Z,6.80
2019-05-28T08:36:31.711Z,9.90
2019-05-28T08:40:41.388Z,9.23
2019-05-28T08:44:50.070Z,7.78
2019-05-28T08:48:57.782Z,6.97
2019-05-28T08:53:06.248Z,9.23
2019-05-28T08:57:14.338Z,8.08
2019-05-28T09:01:22.273Z,6.87
2019-05-28T09:05:31.706Z,16.65
2019-05-28T09:09:39.256Z,7.58
2019-05-28T09:13:47.686Z,7.40
2019-05-28T09:17:56.110Z,8.00
2019-05-28T09:22:03.770Z,10.90
2019-05-28T09:26:12.304Z,11.28
2019-05-28T09:30:21.273Z,7.72
2019-05-28T09:34:29.313Z,7.60
2019-05-28T09:38:37.766Z,7.70
2019-05-28T09:42:45.624Z,9.23
2019-05-28T09:46:54.226Z,7.10
2019-05-28T09:51:02.172Z,8.13
2019-05-28T09:55:09.956Z,7.97
2019-05-28T09:59:18.401Z,9.08
2019-05-28T10:03:25.915Z,8.28
2019-05-28T10:07:34.747Z,11.00
2019-05-28T10:11:43.361Z,6.00
2019-05-28T10:15:51.006Z,10.85
2019-05-28T10:19:59.251Z,12.40
2019-05-28T10:24:06.929Z,6.75
2019-05-28T10:28:15.360Z,8.38
2019-05-28T10:32:23.039Z,8.73
2019-05-28T10:36:36.881Z,11.60
2019-05-28T10:40:41.499Z,10.32
2019-05-28T10:44:49.151Z,8.85
2019-05-28T10:48:57.590Z,9.78
2019-05-28T10:53:05.606Z,13.18
2019-05-28T10:57:13.874Z,11.48
2019-05-28T11:01:22.661Z,9.13
2019-05-28T11:05:30.797Z,9.38
2019-05-28T11:09:39.485Z,8.60
2019-05-28T11:13:53.110Z,5.83
2019-05-28T11:17:57.127Z,7.15
2019-05-28T11:22:05.774Z,5.90
2019-05-28T11:26:13.239Z,7.30
2019-05-28T11:30:22.269Z,7.22
2019-05-28T11:34:29.741Z,5.20
2019-05-28T11:38:38.953Z,6.62
2019-05-28T11:42:47.508Z,6.30
2019-05-28T11:46:55.131Z,5.30
2019-05-28T11:51:04.005Z,6.97
2019-05-28T11:55:14.023Z,6.55
2019-05-28T11:59:22.236Z,4.05
2019-05-28T12:03:30.665Z,4.35
2019-05-28T12:07:38.569Z,4.87
2019-05-28T12:11:46.974Z,9.98
2019-05-28T12:15:55.290Z,5.15
2019-05-28T12:20:03.181Z,3.85
2019-05-28T12:24:11.573Z,7.10
2019-05-28T12:28:36.411Z,10.00
2019-05-28T12:32:29.916Z,7.90
2019-05-28T12:36:38.607Z,22.10
2019-05-28T12:40:48.458Z,4.25
2019-05-28T12:45:08.892Z,6.25
2019-05-28T12:49:06.018Z,4.00
2019-05-28T12:53:14.668Z,6.15
2019-05-28T12:57:24.368Z,6.50
2019-05-28T13:01:32.134Z,4.20
2019-05-28T13:05:40.926Z,7.65
2019-05-28T13:09:49.300Z,8.95
2019-05-28T13:13:58.203Z,4.30
2019-05-28T13:18:06.995Z,6.67
2019-05-28T13:22:14.656Z,6.90
2019-05-28T13:26:22.616Z,3.87
2019-05-28T13:30:30.395Z,4.03
2019-05-28T13:34:39.055Z,5.47
2019-05-28T13:38:47.338Z,3.98
2019-05-28T13:42:55.810Z,8.93
2019-05-28T13:47:04.321Z,6.70
2019-05-28T13:51:11.851Z,8.80
2019-05-28T14:09:23.387Z,12.28
2019-05-28T14:13:32.172Z,8.35
2019-05-28T14:17:40.537Z,7.28
2019-05-28T14:21:48.094Z,9.88
2019-05-28T14:25:56.069Z,13.38
2019-05-28T14:30:03.902Z,14.83
2019-05-28T14:34:11.867Z,11.85
2019-05-28T14:38:20.040Z,7.15
2019-05-28T14:42:28.409Z,6.75
2019-05-28T14:46:36.864Z,5.92
2019-05-28T14:50:44.549Z,13.35
2019-05-28T14:54:52.427Z,6.37
2019-05-28T14:59:00.304Z,8.10
2019-05-28T15:03:08.214Z,10.30
2019-05-28T15:07:16.503Z,6.90
2019-05-28T15:11:25.245Z,8.65
2019-05-28T15:15:36.309Z,7.45
2019-05-28T15:19:43.262Z,8.27
2019-05-28T15:23:50.919Z,7.12
2019-05-28T15:28:00.179Z,10.53
2019-05-28T15:32:08.606Z,10.00
2019-05-28T15:36:16.853Z,5.87
2019-05-28T15:40:24.847Z,8.45
2019-05-28T15:44:33.085Z,8.65
2019-05-28T15:48:40.970Z,6.30
2019-05-28T15:52:49.718Z,7.42
2019-05-28T15:56:57.628Z,9.13
2019-05-28T16:01:06.097Z,8.83
2019-05-28T16:05:13.907Z,12.87
2019-05-28T16:09:21.636Z,11.20
2019-05-28T16:13:29.718Z,8.43
2019-05-28T16:17:37.937Z,7.72
2019-05-28T16:21:46.250Z,9.47
2019-05-28T16:25:53.968Z,7.20
2019-05-28T16:30:01.659Z,10.97
2019-05-28T16:34:09.559Z,9.93
2019-05-28T16:38:17.634Z,11.90
2019-05-28T16:42:25.844Z,12.90
2019-05-28T16:46:33.740Z,8.90
2019-05-28T16:50:41.456Z,9.03
2019-05-28T16:54:49.230Z,8.88
2019-05-28T16:58:57.465Z,14.07
2019-05-28T17:03:06.613Z,11.10
2019-05-28T17:07:14.820Z,9.70
2019-05-28T17:11:27.377Z,12.17
2019-05-28T17:15:32.488Z,13.53
2019-05-28T17:19:44.671Z,11.17
2019-05-28T17:23:50.505Z,10.87
2019-05-28T17:27:58.705Z,13.87
2019-05-28T17:32:06.493Z,15.83
2019-05-28T17:36:14.784Z,16.17
2019-05-28T17:40:22.547Z,13.10
2019-05-28T17:44:30.911Z,15.47
2019-05-28T17:48:39.217Z,20.37
2019-05-28T17:52:51.007Z,16.23
2019-05-28T17:56:56.745Z,18.27
2019-05-28T18:01:04.661Z,20.50
2019-05-28T18:05:12.509Z,16.57
2019-05-28T18:09:20.301Z,17.73
2019-05-28T18:13:28.728Z,15.67
2019-05-28T18:17:37.048Z,15.27
2019-05-28T18:21:44.728Z,16.93
2019-05-28T18:25:52.824Z,14.17
2019-05-28T18:30:00.802Z,13.63
2019-05-28T18:34:09.542Z,12.80
2019-05-28T18:38:17.290Z,15.20
2019-05-28T18:42:24.933Z,12.43
2019-05-28T18:46:32.937Z,15.23
2019-05-28T18:50:41.049Z,14.93
2019-05-28T18:54:48.561Z,17.63
2019-05-28T18:58:56.960Z,17.37
2019-05-28T19:03:04.579Z,16.33
2019-05-28T19:07:12.922Z,16.47
2019-05-28T19:11:34.913Z,20.27
2019-05-28T19:15:30.685Z,23.17
2019-05-28T19:19:38.523Z,20.70
2019-05-28T19:23:46.049Z,23.07
2019-05-28T19:27:54.147Z,19.50
2019-05-28T19:32:02.083Z,19.43
2019-05-28T19:36:12.091Z,19.07
2019-05-28T19:40:30.962Z,19.60
2019-05-28T19:44:38.733Z,21.90
2019-05-28T19:48:46.995Z,25.23
2019-05-28T19:52:57.390Z,16.00
2019-05-28T19:57:04.653Z,18.33
2019-05-28T20:01:12.749Z,20.87
2019-05-28T20:05:20.711Z,24.30
2019-05-28T20:09:28.616Z,21.43
2019-05-28T20:13:36.120Z,19.93
2019-05-28T20:17:44.142Z,21.03
2019-05-28T20:21:53.826Z,20.10
2019-05-28T20:26:02.063Z,19.73
2019-05-28T20:30:11.490Z,16.10
2019-05-28T20:34:19.755Z,17.63
2019-05-28T20:38:27.976Z,17.33
2019-05-28T20:42:35.984Z,16.10
2019-05-28T20:46:44.068Z,19.27
2019-05-28T20:51:06.951Z,21.50
2019-05-28T20:55:02.135Z,15.80
2019-05-28T20:59:10.428Z,16.77
2019-05-28T21:03:18.368Z,16.50
2019-05-28T21:07:26.560Z,17.57
2019-05-28T21:11:34.773Z,18.10
2019-05-28T21:15:42.525Z,16.53
2019-05-28T21:19:51.170Z,18.83
2019-05-28T21:24:00.025Z,16.37
2019-05-28T21:28:08.237Z,16.60
2019-05-28T21:32:16.139Z,15.87
2019-05-28T21:36:23.979Z,17.40
2019-05-28T21:40:32.323Z,18.10
2019-05-28T21:44:40.037Z,20.23
2019-05-28T21:48:47.728Z,17.77
2019-05-28T21:52:56.961Z,18.47
2019-05-28T21:57:05.160Z,17.57
2019-05-28T22:01:17.546Z,17.97
2019-05-28T22:05:25.538Z,15.50
2019-05-28T22:09:33.206Z,17.13
2019-05-28T22:13:41.940Z,17.67
2019-05-28T22:17:50.110Z,17.27
2019-05-28T22:21:58.417Z,16.83
2019-05-28T22:26:06.415Z,17.47
2019-05-28T22:30:15.067Z,17.60
2019-05-28T22:34:22.848Z,18.53
2019-05-28T22:38:30.968Z,18.67
2019-05-28T22:42:38.748Z,17.00
2019-05-28T22:46:46.843Z,15.50
2019-05-28T22:50:55.462Z,15.40
2019-05-28T22:55:03.960Z,17.53
2019-05-28T22:59:12.490Z,19.67
2019-05-28T23:03:20.635Z,16.93
2019-05-28T23:07:28.455Z,18.10
2019-05-28T23:11:36.683Z,20.20
2019-05-28T23:15:45.032Z,17.67
2019-05-28T23:19:53.115Z,16.80
2019-05-28T23:24:03.042Z,16.37
2019-05-28T23:28:11.912Z,20.43
2019-05-28T23:32:20.529Z,17.10
2019-05-28T23:36:28.779Z,16.93
2019-05-28T23:40:36.556Z,18.10
2019-05-28T23:44:44.853Z,17.93
2019-05-28T23:48:52.469Z,17.33
2019-05-28T23:53:00.838Z,17.50
2019-05-28T23:57:09.841Z,17.87
